General Aviation Weather

Text Reports

Enter one or more of the following location identifiers separated by a space:

Zip Code, Four-Character ICAO or Three-Character IATA airport codes.

METAR - Aviation Routine Weather Report
KAKO - Akron, Colorado
Updated at 4:53 AM GMT on March 29, 2015 (10:53 PM MDT):
METAR KAKO 290453Z AUTO 28012KT 10SM CLR 16/M03 A2992 RMK AO2 WSHFT 0340 SLP084 T01561028
TAF - Terminal Area Forecast
KAKO - Akron, Colorado
Updated at 4:53 AM GMT on March 29, 2015 (10:53 PM MDT):
No TAF is currently available for this location.
Decoded:
No decoded TAF is available.
PIREP - Pilot Weather Report
KAKO - Akron, Colorado
Updated at 4:53 AM GMT on March 29, 2015 (10:53 PM MDT):
No PIREP is currently available for this location.
AIRMET - Airmens Meteorological Information
KAKO - Akron, Colorado
Updated at 4:53 AM GMT on March 29, 2015 (10:53 PM MDT):
No AIRMET is currently available for this location.
SIGMET - Significant Meteorological Information
KAKO - Akron, Colorado
Updated at 4:53 AM GMT on March 29, 2015 (10:53 PM MDT):
No SIGMET is currently available for this location.
NOTAM - Notice to Airmen
KAKO - Akron, Colorado
Updated at 4:53 AM GMT on March 29, 2015 (10:53 PM MDT):
No NOTAM is currently available for this location.
Forecast Area
KAKO - Akron, Colorado
Updated at 4:53 AM GMT on March 29, 2015 (10:53 PM MDT):
No NOTAM is currently available for this location.
Aviation Weather Maps